createdAt,value
2017-08-29T00:00:45.948Z,4
2017-08-29T00:01:46.048Z,4
2017-08-29T00:02:46.384Z,4
2017-08-29T00:03:45.801Z,4
2017-08-29T00:04:46.772Z,4
2017-08-29T00:05:46.510Z,4
2017-08-29T00:06:46.811Z,4
2017-08-29T00:07:46.633Z,4
2017-08-29T00:08:46.881Z,4
2017-08-29T00:09:46.587Z,4
2017-08-29T00:10:47.247Z,4
2017-08-29T00:11:47.015Z,4
2017-08-29T00:12:46.721Z,4
2017-08-29T00:13:47.083Z,4
2017-08-29T00:14:47.089Z,4
2017-08-29T00:15:47.098Z,4
2017-08-29T00:16:46.533Z,4
2017-08-29T00:17:47.507Z,4
2017-08-29T00:18:47.205Z,4
2017-08-29T00:19:47.874Z,4
2017-08-29T00:20:47.878Z,4
2017-08-29T00:21:47.644Z,4
2017-08-29T00:22:47.941Z,4
2017-08-29T00:23:47.712Z,4
2017-08-29T00:24:47.424Z,4
2017-08-29T00:25:48.065Z,4
2017-08-29T00:26:47.789Z,0
2017-08-29T00:27:48.110Z,4
2017-08-29T00:28:47.810Z,4
2017-08-29T00:29:48.178Z,4
2017-08-29T00:31:42.596Z,4
2017-08-29T00:32:10.583Z,4
2017-08-29T00:33:10.898Z,4
2017-08-29T00:34:10.660Z,4
2017-08-29T00:35:10.969Z,4
2017-08-29T00:36:10.735Z,4
2017-08-29T00:37:10.174Z,4
2017-08-29T00:38:10.862Z,4
2017-08-29T00:39:10.884Z,0
2017-08-29T00:40:10.872Z,0
2017-08-29T00:41:10.909Z,0
2017-08-29T00:42:11.783Z,0
2017-08-29T00:43:11.507Z,0
2017-08-29T00:44:11.840Z,0
2017-08-29T00:45:11.973Z,0
2017-08-29T00:46:11.934Z,0
2017-08-29T00:47:11.981Z,0
2017-08-29T00:48:11.689Z,0
2017-08-29T00:49:12.009Z,0
2017-08-29T00:50:11.483Z,0
2017-08-29T00:51:11.830Z,0
2017-08-29T00:52:11.840Z,0
2017-08-29T00:53:11.874Z,0
2017-08-29T00:54:11.609Z,0
2017-08-29T00:55:12.614Z,0
2017-08-29T00:56:12.376Z,0
2017-08-29T00:57:12.034Z,0
2017-08-29T00:58:12.410Z,0
2017-08-29T00:59:12.433Z,0
2017-08-29T01:00:12.784Z,0
2017-08-29T01:01:12.806Z,0
2017-08-29T01:02:12.541Z,0
2017-08-29T01:03:12.872Z,0
2017-08-29T01:04:12.902Z,0
2017-08-29T01:05:12.970Z,0
2017-08-29T01:06:12.955Z,0
2017-08-29T01:07:13.015Z,0
2017-08-29T01:08:12.426Z,0
2017-08-29T01:09:13.083Z,0
2017-08-29T01:10:13.110Z,0
2017-08-29T01:11:13.450Z,0
2017-08-29T01:12:13.485Z,0
2017-08-29T01:13:13.206Z,0
2017-08-29T01:14:13.556Z,0
2017-08-29T01:15:13.274Z,0
2017-08-29T01:16:13.611Z,0
2017-08-29T01:17:14.252Z,0
2017-08-29T01:18:14.263Z,0
2017-08-29T01:19:13.989Z,0
2017-08-29T01:20:14.059Z,0
2017-08-29T01:21:14.445Z,0
2017-08-29T01:22:14.439Z,0
2017-08-29T01:23:14.210Z,0
2017-08-29T01:24:14.507Z,0
2017-08-29T01:25:14.852Z,0
2017-08-29T01:26:14.881Z,0
2017-08-29T01:27:14.596Z,0
2017-08-29T01:28:14.955Z,0
2017-08-29T01:29:15.003Z,0
2017-08-29T01:30:15.028Z,0
2017-08-29T01:31:14.728Z,0
2017-08-29T01:32:15.074Z,0
2017-08-29T01:33:14.803Z,0
2017-08-29T01:34:15.140Z,0
2017-08-29T01:35:15.165Z,0
2017-08-29T01:36:14.564Z,0
2017-08-29T01:37:15.223Z,0
2017-08-29T01:38:15.251Z,0
2017-08-29T01:39:15.935Z,0
2017-08-29T01:40:15.961Z,0
2017-08-29T01:41:15.968Z,0
2017-08-29T01:42:15.699Z,0
2017-08-29T01:43:16.049Z,0
2017-08-29T01:44:16.064Z,0
2017-08-29T01:45:16.098Z,0
2017-08-29T01:46:16.136Z,0
2017-08-29T01:47:15.848Z,0
2017-08-29T01:48:15.903Z,0
2017-08-29T01:49:15.637Z,0
2017-08-29T01:50:15.651Z,0
2017-08-29T01:51:16.343Z,0
2017-08-29T01:52:16.352Z,0
2017-08-29T01:53:16.678Z,0
2017-08-29T01:54:16.705Z,0
2017-08-29T01:55:16.748Z,0
2017-08-29T01:56:17.103Z,0
2017-08-29T01:57:16.828Z,0
2017-08-29T01:58:16.855Z,0
2017-08-29T01:59:17.193Z,0
2017-08-29T02:00:17.231Z,0
2017-08-29T02:01:17.264Z,0
2017-08-29T02:02:16.961Z,0
2017-08-29T02:03:17.322Z,0
2017-08-29T02:04:17.358Z,0
2017-08-29T02:05:16.762Z,0
2017-08-29T02:06:17.087Z,0
2017-08-29T02:07:17.423Z,0
2017-08-29T02:08:18.099Z,0
2017-08-29T02:09:17.464Z,0
2017-08-29T02:10:17.493Z,0
2017-08-29T02:11:18.102Z,0
2017-08-29T02:12:18.163Z,0
2017-08-29T02:13:17.868Z,0
2017-08-29T02:14:18.457Z,0
2017-08-29T02:15:18.497Z,0
2017-08-29T02:16:18.528Z,0
2017-08-29T02:17:18.563Z,0
2017-08-29T02:18:18.294Z,0
2017-08-29T02:19:18.315Z,0
2017-08-29T02:20:18.669Z,0
2017-08-29T02:21:18.708Z,0
2017-08-29T02:22:18.438Z,0
2017-08-29T02:23:19.062Z,0
2017-08-29T02:24:19.066Z,0
2017-08-29T02:25:18.893Z,0
2017-08-29T02:26:19.613Z,0
2017-08-29T02:27:19.601Z,0
2017-08-29T02:28:19.353Z,0
2017-08-29T02:29:20.020Z,0
2017-08-29T02:30:20.016Z,0
2017-08-29T02:31:19.096Z,0
2017-08-29T02:32:20.069Z,0
2017-08-29T02:33:19.783Z,0
2017-08-29T02:34:20.371Z,0
2017-08-29T02:35:20.417Z,0
2017-08-29T02:36:20.464Z,0
2017-08-29T02:37:20.479Z,0
2017-08-29T02:38:20.515Z,0
2017-08-29T02:39:20.540Z,0
2017-08-29T02:40:20.675Z,0
2017-08-29T02:41:20.611Z,0
2017-08-29T02:42:20.355Z,0
2017-08-29T02:43:21.013Z,0
2017-08-29T02:44:21.008Z,0
2017-08-29T02:45:20.738Z,0
2017-08-29T02:46:21.083Z,0
2017-08-29T02:47:21.112Z,0
2017-08-29T02:48:21.145Z,0
2017-08-29T02:49:21.173Z,0
2017-08-29T02:50:21.228Z,0
2017-08-29T02:51:21.268Z,0
2017-08-29T02:52:20.976Z,0
2017-08-29T02:53:21.321Z,0
2017-08-29T02:54:21.356Z,0
2017-08-29T02:55:21.686Z,0
2017-08-29T02:56:21.412Z,0
2017-08-29T02:57:22.015Z,0
2017-08-29T02:58:22.051Z,0
2017-08-29T02:59:22.072Z,0
2017-08-29T03:00:22.105Z,0
2017-08-29T03:01:22.149Z,0
2017-08-29T03:02:21.849Z,0
2017-08-29T03:03:22.197Z,0
2017-08-29T03:04:22.269Z,0
2017-08-29T03:05:22.266Z,0
2017-08-29T03:06:22.317Z,0
2017-08-29T03:07:22.385Z,0
2017-08-29T03:08:21.981Z,0
2017-08-29T03:09:22.386Z,0
2017-08-29T03:10:22.436Z,0
2017-08-29T03:11:22.459Z,0
2017-08-29T03:12:22.759Z,0
2017-08-29T03:13:22.494Z,0
2017-08-29T03:14:22.831Z,0
2017-08-29T03:15:22.946Z,0
2017-08-29T03:16:22.578Z,0
2017-08-29T03:17:22.932Z,0
2017-08-29T03:18:22.312Z,0
2017-08-29T03:19:22.972Z,0
2017-08-29T03:20:22.690Z,0
2017-08-29T03:21:23.319Z,0
2017-08-29T03:22:23.027Z,0
2017-08-29T03:23:23.115Z,0
2017-08-29T03:24:23.402Z,0
2017-08-29T03:25:22.827Z,0
2017-08-29T03:26:23.759Z,0
2017-08-29T03:27:23.477Z,0
2017-08-29T03:28:23.824Z,0
2017-08-29T03:29:23.546Z,0
2017-08-29T03:30:23.908Z,0
2017-08-29T03:31:23.915Z,0
2017-08-29T03:32:23.646Z,0
2017-08-29T03:33:23.986Z,0
2017-08-29T03:34:23.987Z,0
2017-08-29T03:35:24.330Z,0
2017-08-29T03:36:24.026Z,0
2017-08-29T03:37:24.392Z,0
2017-08-29T03:38:24.119Z,0
2017-08-29T03:39:24.431Z,0
2017-08-29T03:40:24.460Z,0
2017-08-29T03:41:24.503Z,0
2017-08-29T03:42:24.839Z,4
2017-08-29T03:43:24.569Z,4
2017-08-29T03:44:24.324Z,0
2017-08-29T03:45:25.260Z,4
2017-08-29T03:46:25.307Z,4
2017-08-29T03:47:25.339Z,4
2017-08-29T03:48:25.063Z,8
2017-08-29T03:49:25.403Z,8
2017-08-29T03:50:25.716Z,8
2017-08-29T03:51:25.736Z,8
2017-08-29T03:52:25.776Z,12
2017-08-29T03:53:24.865Z,12
2017-08-29T03:54:25.510Z,16
2017-08-29T03:55:26.144Z,16
2017-08-29T03:56:25.848Z,20
2017-08-29T03:57:25.904Z,24
2017-08-29T03:58:26.213Z,28
2017-08-29T03:59:25.917Z,32
2017-08-29T04:00:26.496Z,36
2017-08-29T04:01:26.375Z,40
2017-08-29T04:02:26.411Z,48
2017-08-29T04:03:26.447Z,48
2017-08-29T04:04:26.144Z,56
2017-08-29T04:05:26.494Z,68
2017-08-29T04:06:26.912Z,72
2017-08-29T04:07:27.055Z,80
2017-08-29T04:08:27.033Z,92
2017-08-29T04:09:26.690Z,100
2017-08-29T04:10:27.187Z,108
2017-08-29T04:11:26.760Z,120
2017-08-29T04:12:26.766Z,128
2017-08-29T04:13:27.137Z,144
2017-08-29T04:14:27.163Z,156
2017-08-29T04:15:27.196Z,168
2017-08-29T04:16:27.234Z,180
2017-08-29T04:17:26.945Z,196
2017-08-29T04:18:27.672Z,212
2017-08-29T04:19:27.395Z,228
2017-08-29T04:20:27.427Z,244
2017-08-29T04:21:27.452Z,260
2017-08-29T04:22:28.158Z,280
2017-08-29T04:23:28.190Z,300
2017-08-29T04:24:27.906Z,320
2017-08-29T04:25:27.934Z,340
2017-08-29T04:26:27.950Z,364
2017-08-29T04:27:28.349Z,380
2017-08-29T04:28:28.367Z,404
2017-08-29T04:29:28.404Z,424
2017-08-29T04:30:28.438Z,448
2017-08-29T04:31:28.473Z,472
2017-08-29T04:32:28.187Z,492
2017-08-29T04:33:28.211Z,520
2017-08-29T04:34:28.562Z,544
2017-08-29T04:35:28.597Z,568
2017-08-29T04:36:28.292Z,592
2017-08-29T04:37:28.644Z,616
2017-08-29T04:38:28.371Z,640
2017-08-29T04:39:28.410Z,664
2017-08-29T04:40:29.245Z,688
2017-08-29T04:41:28.957Z,712
2017-08-29T04:42:29.298Z,736
2017-08-29T04:43:29.339Z,760
2017-08-29T04:44:29.362Z,788
2017-08-29T04:45:29.423Z,812
2017-08-29T04:46:29.444Z,836
2017-08-29T04:47:29.464Z,864
2017-08-29T04:48:29.493Z,888
2017-08-29T04:49:29.525Z,912
2017-08-29T04:50:29.554Z,940
2017-08-29T04:51:29.583Z,960
2017-08-29T04:52:29.302Z,988
2017-08-29T04:53:29.645Z,1012
2017-08-29T04:54:29.679Z,1036
2017-08-29T04:55:29.398Z,1060
2017-08-29T04:56:29.747Z,1088
2017-08-29T04:57:29.777Z,1108
2017-08-29T04:58:29.485Z,1136
2017-08-29T04:59:29.876Z,1160
2017-08-29T05:00:29.909Z,1188
2017-08-29T05:01:29.953Z,1212
2017-08-29T05:02:29.703Z,1232
2017-08-29T05:03:30.156Z,1252
2017-08-29T05:04:30.866Z,1272
2017-08-29T05:05:30.897Z,1292
2017-08-29T05:06:30.620Z,1316
2017-08-29T05:07:30.647Z,1332
2017-08-29T05:08:30.988Z,1356
2017-08-29T05:09:30.720Z,1376
2017-08-29T05:10:30.746Z,1396
2017-08-29T05:11:30.770Z,1416
2017-08-29T05:12:30.496Z,1436
2017-08-29T05:13:31.212Z,1456
2017-08-29T05:14:30.936Z,1480
2017-08-29T05:15:31.278Z,1496
2017-08-29T05:16:31.302Z,1520
2017-08-29T05:17:31.330Z,1536
2017-08-29T05:18:31.377Z,1556
2017-08-29T05:19:31.418Z,1572
2017-08-29T05:20:30.783Z,1588
2017-08-29T05:21:31.877Z,1608
2017-08-29T05:22:31.565Z,1624
2017-08-29T05:23:31.589Z,1660
2017-08-29T05:24:31.933Z,1688
2017-08-29T05:25:31.963Z,1720
2017-08-29T05:26:31.992Z,1744
2017-08-29T05:27:32.038Z,1756
2017-08-29T05:28:32.063Z,1768
2017-08-29T05:29:32.096Z,1796
2017-08-29T05:30:32.132Z,1880
2017-08-29T05:31:31.839Z,2020
2017-08-29T05:32:31.868Z,2180
2017-08-29T05:33:32.275Z,2320
2017-08-29T05:34:32.298Z,2368
2017-08-29T05:35:31.995Z,2804
2017-08-29T05:36:32.732Z,2688
2017-08-29T05:37:32.754Z,2484
2017-08-29T05:38:32.791Z,2416
2017-08-29T05:39:32.196Z,2440
2017-08-29T05:40:32.927Z,2496
2017-08-29T05:41:32.981Z,2680
2017-08-29T05:42:32.678Z,2728
2017-08-29T05:43:32.717Z,2704
2017-08-29T05:44:32.745Z,2780
2017-08-29T05:45:33.084Z,2944
2017-08-29T05:46:33.124Z,3128
2017-08-29T05:47:33.150Z,3388
2017-08-29T05:48:33.187Z,3564
2017-08-29T05:49:33.214Z,3616
2017-08-29T05:50:32.940Z,3540
2017-08-29T05:51:33.284Z,3656
2017-08-29T05:52:32.988Z,3980
2017-08-29T05:53:33.392Z,4456
2017-08-29T05:54:33.438Z,5380
2017-08-29T05:55:33.463Z,5692
2017-08-29T05:56:33.510Z,5556
2017-08-29T05:57:33.519Z,5764
2017-08-29T05:58:33.616Z,5776
2017-08-29T05:59:33.310Z,5836
2017-08-29T06:00:33.618Z,6384
2017-08-29T06:01:33.656Z,6660
2017-08-29T06:02:33.384Z,6724
2017-08-29T06:03:33.805Z,6796
2017-08-29T06:04:34.532Z,6988
2017-08-29T06:05:34.568Z,7256
2017-08-29T06:06:34.595Z,7432
2017-08-29T06:07:34.430Z,7456
2017-08-29T06:08:34.042Z,7492
2017-08-29T06:09:34.819Z,7424
2017-08-29T06:10:35.161Z,7328
2017-08-29T06:11:34.574Z,7372
2017-08-29T06:12:35.888Z,7736
2017-08-29T06:13:35.733Z,8104
2017-08-29T06:14:35.741Z,8176
2017-08-29T06:15:35.469Z,8156
2017-08-29T06:16:35.790Z,8152
2017-08-29T06:17:35.846Z,8164
2017-08-29T06:18:35.575Z,8088
2017-08-29T06:19:35.620Z,8000
2017-08-29T06:20:36.357Z,7916
2017-08-29T06:21:36.397Z,7936
2017-08-29T06:22:36.423Z,7992
2017-08-29T06:23:36.460Z,7952
2017-08-29T06:24:36.502Z,7796
2017-08-29T06:25:36.547Z,7644
2017-08-29T06:26:36.574Z,7568
2017-08-29T06:27:36.306Z,7484
2017-08-29T06:28:36.704Z,7396
2017-08-29T06:29:36.739Z,7288
2017-08-29T06:30:36.799Z,7208
2017-08-29T06:31:36.814Z,7188
2017-08-29T06:32:36.854Z,7140
2017-08-29T06:33:36.904Z,7108
2017-08-29T06:34:36.925Z,7096
2017-08-29T06:35:36.971Z,7012
2017-08-29T06:36:36.392Z,7000
2017-08-29T06:37:37.440Z,6964
2017-08-29T06:38:37.179Z,7000
2017-08-29T06:39:37.593Z,6944
2017-08-29T06:40:38.012Z,7004
2017-08-29T06:41:38.045Z,7048
2017-08-29T06:42:38.112Z,7036
2017-08-29T06:43:38.456Z,6928
2017-08-29T06:44:38.218Z,6888
2017-08-29T06:45:38.948Z,6828
2017-08-29T06:46:38.736Z,6784
2017-08-29T06:47:39.152Z,6812
2017-08-29T06:48:39.509Z,7004
2017-08-29T06:49:39.239Z,7108
2017-08-29T06:50:39.588Z,6924
2017-08-29T06:51:39.313Z,6688
2017-08-29T06:52:39.673Z,6676
2017-08-29T06:53:39.370Z,6644
2017-08-29T06:54:39.747Z,6608
2017-08-29T06:55:39.789Z,6660
2017-08-29T06:56:39.207Z,6884
2017-08-29T06:57:40.273Z,7944
2017-08-29T06:58:40.319Z,8848
2017-08-29T06:59:39.703Z,9164
2017-08-29T07:00:40.777Z,8664
2017-08-29T07:01:40.542Z,7812
2017-08-29T07:02:40.946Z,7116
2017-08-29T07:03:41.307Z,6964
2017-08-29T07:04:40.719Z,7044
2017-08-29T07:05:40.819Z,6872
2017-08-29T07:06:41.529Z,6732
2017-08-29T07:07:41.550Z,6636
2017-08-29T07:08:41.589Z,6600
2017-08-29T07:09:41.635Z,6664
2017-08-29T07:10:41.358Z,6856
2017-08-29T07:11:42.070Z,7028
2017-08-29T07:12:41.797Z,7172
2017-08-29T07:13:41.852Z,7520
2017-08-29T07:14:42.194Z,8312
2017-08-29T07:15:41.931Z,9804
2017-08-29T07:16:42.285Z,12504
2017-08-29T07:17:42.039Z,16288
2017-08-29T07:18:42.362Z,18528
2017-08-29T07:19:42.396Z,20992
2017-08-29T07:20:42.443Z,23360
2017-08-29T07:21:42.487Z,24800
2017-08-29T07:22:41.900Z,26592
2017-08-29T07:23:42.333Z,28416
2017-08-29T07:24:42.767Z,31008
2017-08-29T07:25:42.781Z,34656
2017-08-29T07:26:42.848Z,37408
2017-08-29T07:27:43.570Z,40864
2017-08-29T07:28:43.630Z,43872
2017-08-29T07:29:43.339Z,45408
2017-08-29T07:30:43.699Z,45184
2017-08-29T07:31:43.432Z,44384
2017-08-29T07:32:43.778Z,46624
2017-08-29T07:33:43.825Z,49024
2017-08-29T07:34:43.863Z,49312
2017-08-29T07:35:43.901Z,49504
2017-08-29T07:36:43.638Z,49344
2017-08-29T07:37:43.659Z,51168
2017-08-29T07:38:44.040Z,51456
2017-08-29T07:39:43.753Z,51808
2017-08-29T07:40:44.159Z,49600
2017-08-29T07:41:44.205Z,44768
2017-08-29T07:42:43.939Z,40576
2017-08-29T07:43:44.649Z,33056
2017-08-29T07:44:44.395Z,26368
2017-08-29T07:45:44.742Z,22208
2017-08-29T07:46:44.872Z,17632
2017-08-29T07:47:44.484Z,15060
2017-08-29T07:48:44.922Z,13492
2017-08-29T07:49:44.636Z,12524
2017-08-29T07:50:45.380Z,11340
2017-08-29T07:51:45.432Z,10396
2017-08-29T07:52:45.467Z,10128
2017-08-29T07:53:45.522Z,10040
2017-08-29T07:54:45.553Z,9860
2017-08-29T07:55:45.597Z,9608
2017-08-29T07:56:45.707Z,9424
2017-08-29T07:57:45.379Z,9104
2017-08-29T07:58:45.734Z,8952
2017-08-29T07:59:45.143Z,8780
2017-08-29T08:00:45.559Z,8600
2017-08-29T08:01:46.620Z,8936
2017-08-29T08:02:47.033Z,8996
2017-08-29T08:03:47.070Z,8872
2017-08-29T08:04:47.120Z,9196
2017-08-29T08:05:47.152Z,9460
2017-08-29T08:06:47.195Z,9924
2017-08-29T08:07:46.939Z,10016
2017-08-29T08:08:47.291Z,9616
2017-08-29T08:09:47.022Z,9196
2017-08-29T08:10:47.059Z,9008
2017-08-29T08:11:47.088Z,9148
2017-08-29T08:12:46.821Z,9300
2017-08-29T08:13:47.576Z,9368
2017-08-29T08:14:47.294Z,9288
2017-08-29T08:15:47.649Z,9288
2017-08-29T08:16:47.694Z,10648
2017-08-29T08:17:47.748Z,14912
2017-08-29T08:18:47.784Z,16896
2017-08-29T08:19:47.837Z,14400
2017-08-29T08:20:47.542Z,12564
2017-08-29T08:21:47.920Z,11864
2017-08-29T08:22:47.962Z,11704
2017-08-29T08:23:47.365Z,11592
2017-08-29T08:24:48.431Z,11316
2017-08-29T08:25:48.145Z,11624
2017-08-29T08:26:48.205Z,11416
2017-08-29T08:27:48.559Z,10744
2017-08-29T08:28:48.607Z,10552
2017-08-29T08:29:48.655Z,10256
2017-08-29T08:30:48.691Z,10096
2017-08-29T08:31:48.094Z,9864
2017-08-29T08:32:48.155Z,9520
2017-08-29T08:33:48.833Z,9460
2017-08-29T08:34:48.561Z,9052
2017-08-29T08:35:48.611Z,8760
2017-08-29T08:36:48.651Z,8600
2017-08-29T08:37:48.694Z,8460
2017-08-29T08:38:48.430Z,8488
2017-08-29T08:39:49.183Z,8532
2017-08-29T08:40:49.246Z,8624
2017-08-29T08:41:48.944Z,8628
2017-08-29T08:42:49.002Z,8600
2017-08-29T08:43:49.360Z,8584
2017-08-29T08:44:49.407Z,8616
2017-08-29T08:45:48.821Z,8720
2017-08-29T08:46:49.551Z,8808
2017-08-29T08:47:49.605Z,8936
2017-08-29T08:48:49.335Z,9072
2017-08-29T08:49:50.085Z,9084
2017-08-29T08:50:50.130Z,9140
2017-08-29T08:51:49.213Z,9116
2017-08-29T08:52:49.965Z,9008
2017-08-29T08:53:50.354Z,8972
2017-08-29T08:54:50.406Z,8996
2017-08-29T08:55:50.794Z,9076
2017-08-29T08:56:50.493Z,9140
2017-08-29T08:57:50.872Z,9188
2017-08-29T08:58:50.923Z,9240
2017-08-29T08:59:50.971Z,9228
2017-08-29T09:00:51.033Z,9280
2017-08-29T09:01:50.441Z,9336
2017-08-29T09:02:51.166Z,9512
2017-08-29T09:03:50.586Z,9780
2017-08-29T09:04:51.666Z,10012
2017-08-29T09:05:51.146Z,10196
2017-08-29T09:06:51.586Z,10336
2017-08-29T09:07:52.050Z,10636
2017-08-29T09:08:51.999Z,10868
2017-08-29T09:09:51.736Z,10916
2017-08-29T09:10:52.090Z,10836
2017-08-29T09:11:51.810Z,11392
2017-08-29T09:12:52.177Z,12732
2017-08-29T09:13:51.926Z,13908
2017-08-29T09:14:52.327Z,14532
2017-08-29T09:15:52.066Z,14900
2017-08-29T09:16:52.822Z,15420
2017-08-29T09:17:52.553Z,16512
2017-08-29T09:18:52.936Z,18624
2017-08-29T09:19:52.643Z,20608
2017-08-29T09:20:53.017Z,21664
2017-08-29T09:21:52.736Z,23712
2017-08-29T09:22:53.097Z,26496
2017-08-29T09:23:53.176Z,31616
2017-08-29T09:24:52.882Z,36032
2017-08-29T09:25:53.245Z,38208
2017-08-29T09:26:53.297Z,35712
2017-08-29T09:27:53.338Z,34176
2017-08-29T09:28:53.378Z,33312
2017-08-29T09:29:53.095Z,35584
2017-08-29T09:30:53.502Z,37504
2017-08-29T09:31:53.534Z,40352
2017-08-29T09:32:53.569Z,41056
2017-08-29T09:33:53.626Z,34272
2017-08-29T09:34:53.669Z,31040
2017-08-29T09:35:53.069Z,30432
2017-08-29T09:36:54.051Z,27392
2017-08-29T09:37:53.245Z,26336
2017-08-29T09:38:53.998Z,25728
2017-08-29T09:39:53.731Z,25248
2017-08-29T09:40:53.986Z,25376
2017-08-29T09:41:54.144Z,27072
2017-08-29T09:42:53.878Z,25792
2017-08-29T09:43:54.239Z,24928
2017-08-29T09:44:53.963Z,27520
2017-08-29T09:45:54.355Z,29280
2017-08-29T09:46:54.382Z,33568
2017-08-29T09:47:54.485Z,43680
2017-08-29T09:48:54.532Z,53184
2017-08-29T09:49:54.574Z,58848
2017-08-29T09:50:54.720Z,65664
2017-08-29T09:51:54.667Z,79136
2017-08-29T09:52:54.413Z,94464
2017-08-29T09:53:54.823Z,100800
2017-08-29T09:54:54.562Z,97216
2017-08-29T09:55:54.667Z,94304
2017-08-29T09:56:55.338Z,93600
2017-08-29T09:57:55.066Z,90656
2017-08-29T09:58:55.104Z,81216
2017-08-29T09:59:55.483Z,70560
2017-08-29T10:00:55.735Z,63136
2017-08-29T10:01:55.257Z,56608
2017-08-29T10:02:55.289Z,53632
2017-08-29T10:03:55.042Z,56864
2017-08-29T10:04:55.802Z,64672
2017-08-29T10:05:56.562Z,70464
2017-08-29T10:06:56.605Z,71744
2017-08-29T10:07:56.721Z,74400
2017-08-29T10:08:56.404Z,80640
2017-08-29T10:09:56.756Z,87904
2017-08-29T10:10:56.789Z,88128
2017-08-29T10:11:56.530Z,86112
2017-08-29T10:12:56.960Z,90048
2017-08-29T10:13:57.379Z,92480
2017-08-29T10:14:57.733Z,90208
2017-08-29T10:15:57.771Z,86400
2017-08-29T10:16:57.822Z,88096
2017-08-29T10:17:57.862Z,92896
2017-08-29T10:18:57.602Z,90048
2017-08-29T10:19:57.960Z,85056
2017-08-29T10:20:57.684Z,85472
2017-08-29T10:21:57.735Z,84896
2017-08-29T10:22:58.096Z,83552
2017-08-29T10:23:57.814Z,84864
2017-08-29T10:24:58.221Z,90528
2017-08-29T10:25:58.236Z,96576
2017-08-29T10:26:57.964Z,97536
2017-08-29T10:27:58.446Z,97696
2017-08-29T10:28:58.490Z,95296
2017-08-29T10:29:58.545Z,94944
2017-08-29T10:30:57.938Z,95776
2017-08-29T10:31:58.998Z,92032
2017-08-29T10:32:58.734Z,87104
2017-08-29T10:33:58.768Z,88896
2017-08-29T10:34:58.811Z,93664
2017-08-29T10:35:58.839Z,96608
2017-08-29T10:36:59.218Z,95392
2017-08-29T10:37:59.257Z,91712
2017-08-29T10:38:58.665Z,90336
2017-08-29T10:39:59.747Z,92416
2017-08-29T10:40:59.777Z,91040
2017-08-29T10:41:59.829Z,85824
2017-08-29T10:42:59.548Z,80576
2017-08-29T10:43:59.912Z,78048
2017-08-29T10:44:59.636Z,79584
2017-08-29T10:45:59.659Z,74048
2017-08-29T10:46:59.699Z,35040
2017-08-29T10:47:59.753Z,11216
2017-08-29T10:49:00.173Z,8016
2017-08-29T10:50:00.258Z,6244
2017-08-29T10:50:59.556Z,5892
2017-08-29T10:52:00.304Z,5712
2017-08-29T10:53:00.347Z,5684
2017-08-29T10:54:00.385Z,5456
2017-08-29T10:55:00.118Z,5460
2017-08-29T10:56:00.528Z,5276
2017-08-29T10:56:59.547Z,5248
2017-08-29T10:58:00.586Z,5160
2017-08-29T10:59:00.303Z,5048
2017-08-29T11:00:00.645Z,4748
2017-08-29T11:01:00.677Z,4904
2017-08-29T11:02:00.715Z,4676
2017-08-29T11:03:00.759Z,4720
2017-08-29T11:04:00.496Z,4816
2017-08-29T11:05:00.844Z,4776
2017-08-29T11:06:00.974Z,4732
2017-08-29T11:07:00.924Z,4676
2017-08-29T11:08:01.299Z,4628
2017-08-29T11:09:01.011Z,4580
2017-08-29T11:10:01.060Z,4440
2017-08-29T11:11:00.914Z,4384
2017-08-29T11:12:00.815Z,4384
2017-08-29T11:13:00.911Z,4308
2017-08-29T11:14:01.961Z,4276
2017-08-29T11:15:02.005Z,4244
2017-08-29T11:16:02.045Z,4212
2017-08-29T11:17:02.083Z,4180
2017-08-29T11:18:02.136Z,4132
2017-08-29T11:19:02.183Z,4112
2017-08-29T11:20:02.219Z,4088
2017-08-29T11:21:01.939Z,4056
2017-08-29T11:22:02.290Z,4028
2017-08-29T11:23:02.336Z,3976
2017-08-29T11:24:01.749Z,3928
2017-08-29T11:25:02.520Z,3892
2017-08-29T11:26:02.191Z,3848
2017-08-29T11:27:02.905Z,3808
2017-08-29T11:28:02.955Z,3784
2017-08-29T11:29:02.992Z,3752
2017-08-29T11:30:03.036Z,3748
2017-08-29T11:31:02.422Z,3736
2017-08-29T11:32:03.166Z,3712
2017-08-29T11:33:03.184Z,3676
2017-08-29T11:34:03.567Z,3620
2017-08-29T11:35:03.989Z,3576
2017-08-29T11:36:03.730Z,3532
2017-08-29T11:37:04.152Z,3476
2017-08-29T11:38:04.186Z,3444
2017-08-29T11:39:03.918Z,3404
2017-08-29T11:40:04.392Z,3392
2017-08-29T11:41:04.806Z,3364
2017-08-29T11:42:05.153Z,3320
2017-08-29T11:43:04.231Z,3272
2017-08-29T11:44:05.342Z,3204
2017-08-29T11:45:05.458Z,3124
2017-08-29T11:46:05.081Z,2992
2017-08-29T11:47:05.409Z,2848
2017-08-29T11:48:05.443Z,2812
2017-08-29T11:49:05.484Z,2816
2017-08-29T11:50:05.274Z,2796
2017-08-29T11:51:05.250Z,2784
2017-08-29T11:52:05.606Z,2768
2017-08-29T11:53:05.648Z,2736
2017-08-29T11:54:05.684Z,2704
2017-08-29T11:55:05.741Z,2660
2017-08-29T11:56:05.238Z,2652
2017-08-29T11:57:05.352Z,2656
2017-08-29T11:58:06.097Z,2648
2017-08-29T11:59:06.447Z,2632
2017-08-29T12:00:06.209Z,2628
2017-08-29T12:01:06.628Z,2636
2017-08-29T12:02:06.996Z,2612
2017-08-29T12:03:07.039Z,2600
2017-08-29T12:04:07.068Z,2580
2017-08-29T12:05:07.175Z,2580
2017-08-29T12:06:06.829Z,2556
2017-08-29T12:07:07.199Z,2544
2017-08-29T12:08:07.361Z,2536
2017-08-29T12:09:06.638Z,2524
2017-08-29T12:10:07.366Z,2520
2017-08-29T12:11:07.080Z,2536
2017-08-29T12:12:07.835Z,2504
2017-08-29T12:13:08.109Z,2532
2017-08-29T12:14:07.947Z,2544
2017-08-29T12:15:07.999Z,2572
2017-08-29T12:16:08.031Z,2588
2017-08-29T12:17:08.022Z,2604
2017-08-29T12:18:07.750Z,2624
2017-08-29T12:19:07.891Z,2628
2017-08-29T12:20:08.467Z,2624
2017-08-29T12:21:08.685Z,2612
2017-08-29T12:22:08.360Z,2588
2017-08-29T12:23:09.122Z,2572
2017-08-29T12:24:08.838Z,2560
2017-08-29T12:25:09.870Z,2548
2017-08-29T12:26:08.932Z,2536
2017-08-29T12:27:09.673Z,2528
2017-08-29T12:28:09.716Z,2516
2017-08-29T12:29:09.471Z,2508
2017-08-29T12:30:09.897Z,2496
2017-08-29T12:31:09.919Z,2480
2017-08-29T12:32:10.334Z,2484
2017-08-29T12:33:10.335Z,2476
2017-08-29T12:34:10.715Z,2452
2017-08-29T12:35:10.780Z,2420
2017-08-29T12:36:10.156Z,2424
2017-08-29T12:37:11.283Z,2408
2017-08-29T12:38:10.937Z,2388
2017-08-29T12:39:10.975Z,2352
2017-08-29T12:40:11.347Z,2340
2017-08-29T12:41:11.120Z,2312
2017-08-29T12:42:10.847Z,2280
2017-08-29T12:43:11.012Z,2264
2017-08-29T12:44:11.758Z,2236
2017-08-29T12:45:11.847Z,2220
2017-08-29T12:46:11.527Z,2200
2017-08-29T12:47:11.297Z,2184
2017-08-29T12:48:11.655Z,2152
2017-08-29T12:49:12.727Z,2140
2017-08-29T12:50:12.423Z,2144
2017-08-29T12:51:13.150Z,2136
2017-08-29T12:52:13.181Z,2136
2017-08-29T12:53:12.885Z,2132
2017-08-29T12:54:13.299Z,2120
2017-08-29T12:55:13.356Z,2104
2017-08-29T12:56:13.397Z,2096
2017-08-29T12:57:14.144Z,2100
2017-08-29T12:58:14.175Z,2092
2017-08-29T12:59:14.219Z,2092
2017-08-29T13:00:14.268Z,2088
2017-08-29T13:01:14.301Z,2088
2017-08-29T13:02:14.000Z,2084
2017-08-29T13:03:14.387Z,2076
2017-08-29T13:04:13.763Z,2080
2017-08-29T13:05:14.160Z,2080
2017-08-29T13:06:14.231Z,2076
2017-08-29T13:07:14.651Z,2064
2017-08-29T13:08:14.758Z,2044
2017-08-29T13:09:15.056Z,2036
2017-08-29T13:10:14.774Z,2024
2017-08-29T13:11:15.137Z,2008
2017-08-29T13:12:15.156Z,1984
2017-08-29T13:13:15.200Z,1984
2017-08-29T13:14:15.248Z,1964
2017-08-29T13:15:15.296Z,1968
2017-08-29T13:16:15.329Z,1972
2017-08-29T13:17:15.360Z,1968
2017-08-29T13:18:15.394Z,1952
2017-08-29T13:19:15.119Z,1936
2017-08-29T13:20:15.276Z,1952
2017-08-29T13:21:15.669Z,1936
2017-08-29T13:22:15.716Z,1932
2017-08-29T13:23:15.761Z,1924
2017-08-29T13:24:15.794Z,1916
2017-08-29T13:25:15.518Z,1904
2017-08-29T13:26:16.262Z,1892
2017-08-29T13:27:16.309Z,1880
2017-08-29T13:28:16.025Z,1880
2017-08-29T13:29:16.424Z,1892
2017-08-29T13:30:16.856Z,1896
2017-08-29T13:31:16.891Z,1896
2017-08-29T13:32:16.930Z,1892
2017-08-29T13:33:16.655Z,1892
2017-08-29T13:34:16.749Z,1888
2017-08-29T13:35:17.585Z,1880
2017-08-29T13:36:17.523Z,1876
2017-08-29T13:37:16.943Z,1876
2017-08-29T13:38:17.351Z,1880
2017-08-29T13:39:17.453Z,1872
2017-08-29T13:40:18.657Z,1856